Airfield :







YOU CAN JOIN US ON...

 
LOGIN :

Register | Disclaimer

   EN    FR    IT 

 









Legend :    VFR   Marginal VFR   IFR   Intensive IFR   Very Intensive IFR
Visi :
Ceiling :
>= 8 km
>= 3000ft
5 to 8 km
1000 to 3000 ft
1500m to 5 km
500 to 1000 ft
800 to 1500m
200 to 500 ft
< 800m
< 200 ft
Symbols :   Thunderstorms  Fog  Heavy snow  Heavy precipitations  Wind > 20 kt







- Airport Elevation : 244 ft
- IATA code : YQB


CYQB - Quebec - Jean Lesage Int.

CURRENT METAR :
  • 221400Z 06007KT 25SM FEW040 FEW230 12/05 A3026 RMK CU1CI1 CU TR SLP252

EXPIRED METARs :
  • 221300Z 05005KT 25SM FEW040 FEW220 11/04 A3027 RMK SC1CI1 SC TR SLP254
  • 221200Z 02005KT 30SM FEW040 FEW100 09/03 A3025 RMK SC1AC1 SC TR AC TR SLP248

TAF TAF CYQB
Valid from the 22 at 12:00 until the 23 at 12:00 UTC


221139Z 2212/2312 VRB03KT P6SM SCT020
TEMPO 2212/2215 BKN020
BECMG 2213/2215 06012G22KT
FM221500 06012G22KT P6SM BKN030
TEMPO 2215/2224 BKN020
FM230000 06012KT P6SM FEW030 RMK NXT FCST BY 221800Z
ATIS : ENG : +1 418-871-6893 FRA : +1 418-871-6895
CZUL FIR / North America



MET'MAP, your aeronautical weather chart ! - Copyright ORBIFLY December 2007 - Disclaimer

ORBIFLY MET'MAP TEAM :

Programming & Development : Alexandra Zaïnal
Concept & Development : Baudouin d'Aumeries
Co-Development & Prog : Marc-Olivier Méhu
Technical & hardware support : Manuel Goepfert

Contact : metmap@orbifly.com




SOURCES & CREDITS :

   NOAA